Time;durP1;ratioP1;P1;durP2;ratioP2;P2;SDS_P1;SDS_P2;PMS_P1;PMS_P2;Temp;Humidity;BMP_temperature;BMP_pressure;BME280_temperature;BME280_humidity;BME280_pressure;Samples;Min_cycle;Max_cycle;Signal;HPM_P1;HPM_P2
2021/09/18 00:01:33;;;;;;;0.40;0.20;;;;;;;11.77;100.00;100259.97;4984599;28;20470;-50
2021/09/18 00:04:00;;;;;;;0.40;0.30;;;;;;;11.79;100.00;100263.50;4985447;28;20818;-50
2021/09/18 00:06:27;;;;;;;0.37;0.20;;;;;;;11.96;100.00;100269.13;4986373;28;20457;-50
2021/09/18 00:08:54;;;;;;;0.60;0.60;;;;;;;11.97;100.00;100262.88;4980450;28;20520;-50
2021/09/18 00:11:21;;;;;;;0.40;0.20;;;;;;;11.89;100.00;100270.25;4975965;28;20908;-50
2021/09/18 00:13:47;;;;;;;0.40;0.20;;;;;;;12.03;100.00;100269.75;4980495;28;20504;-50
2021/09/18 00:16:14;;;;;;;0.40;0.20;;;;;;;12.11;100.00;100270.38;4978598;28;20481;-50
2021/09/18 00:18:41;;;;;;;3.53;0.93;;;;;;;12.01;100.00;100271.63;4985004;28;20446;-50
2021/09/18 00:21:08;;;;;;;0.70;0.70;;;;;;;12.13;100.00;100269.38;4986161;28;20481;-50
2021/09/18 00:23:35;;;;;;;0.50;0.50;;;;;;;12.02;100.00;100271.56;4980105;28;20452;-52
2021/09/18 00:26:02;;;;;;;0.40;0.20;;;;;;;11.95;100.00;100270.03;4979490;28;20485;-51
2021/09/18 00:28:29;;;;;;;0.30;0.20;;;;;;;11.89;100.00;100269.38;4984580;28;20462;-50
2021/09/18 00:30:56;;;;;;;0.40;0.20;;;;;;;11.65;100.00;100269.25;4983709;28;20914;-51
2021/09/18 00:33:23;;;;;;;0.40;0.20;;;;;;;11.69;100.00;100268.22;4984086;28;20546;-50
2021/09/18 00:35:50;;;;;;;0.67;0.67;;;;;;;11.66;100.00;100263.03;4985863;28;20453;-50
2021/09/18 00:38:17;;;;;;;0.40;0.30;;;;;;;11.68;100.00;100263.84;4982124;28;20520;-50
2021/09/18 00:40:44;;;;;;;0.37;0.27;;;;;;;11.84;100.00;100261.53;4979137;28;20502;-50
2021/09/18 00:43:11;;;;;;;0.40;0.20;;;;;;;11.74;100.00;100252.09;4982764;28;20815;-50
2021/09/18 00:45:38;;;;;;;0.40;0.20;;;;;;;11.66;100.00;100255.03;4984684;28;20500;-50
2021/09/18 00:48:05;;;;;;;0.40;0.30;;;;;;;11.57;100.00;100256.19;4982502;28;20449;-50
2021/09/18 00:50:32;;;;;;;0.40;0.20;;;;;;;11.43;100.00;100255.78;4978993;28;21010;-51
2021/09/18 00:52:59;;;;;;;0.43;0.30;;;;;;;11.52;100.00;100247.50;4983215;28;20903;-50
2021/09/18 00:55:27;;;;;;;0.30;0.20;;;;;;;11.56;100.00;100248.25;4988234;28;20891;-50
2021/09/18 00:57:54;;;;;;;0.40;0.20;;;;;;;11.60;100.00;100249.03;4992685;28;20489;-50
2021/09/18 01:00:21;;;;;;;0.40;0.20;;;;;;;11.51;100.00;100244.84;4988793;28;20529;-51
2021/09/18 01:02:48;;;;;;;0.40;0.20;;;;;;;11.51;100.00;100243.09;4985672;28;20489;-50
2021/09/18 01:05:15;;;;;;;0.40;0.40;;;;;;;11.46;100.00;100249.47;4979159;28;20453;-50
2021/09/18 01:07:43;;;;;;;0.33;0.20;;;;;;;11.49;100.00;100250.25;4981404;28;20967;-50
2021/09/18 01:10:10;;;;;;;0.90;0.90;;;;;;;11.48;100.00;100240.50;4985515;28;20537;-51
2021/09/18 01:12:57;;;;;;;0.40;0.40;;;;;;;11.41;100.00;100251.44;4984163;28;20820;-50
2021/09/18 01:15:25;;;;;;;0.40;0.30;;;;;;;11.24;100.00;100244.00;4984760;28;20496;-50
2021/09/18 01:17:52;;;;;;;0.40;0.20;;;;;;;11.35;100.00;100241.84;4989390;28;20488;-50
2021/09/18 01:20:19;;;;;;;0.40;0.20;;;;;;;11.41;100.00;100251.44;4984297;28;20512;-50
2021/09/18 01:22:47;;;;;;;0.40;0.20;;;;;;;11.21;100.00;100247.59;4982773;28;20465;-50
2021/09/18 01:25:15;;;;;;;0.30;0.20;;;;;;;11.30;100.00;100251.78;4986959;28;20481;-51
2021/09/18 01:27:45;;;;;;;0.33;0.20;;;;;;;11.32;100.00;100246.41;4978270;28;20454;-50
2021/09/18 01:30:28;;;;;;;0.30;0.20;;;;;;;11.27;100.00;100250.09;4987036;28;20557;-51
2021/09/18 01:32:57;;;;;;;0.40;0.20;;;;;;;11.16;100.00;100246.88;4982165;28;20868;-50
2021/09/18 01:35:25;;;;;;;0.30;0.20;;;;;;;11.33;100.00;100248.13;4982929;28;20841;-51
2021/09/18 01:37:52;;;;;;;0.30;0.20;;;;;;;11.27;100.00;100242.09;4988962;28;20450;-51
2021/09/18 01:40:28;;;;;;;0.40;0.20;;;;;;;11.28;100.00;100242.97;4988518;28;20469;-52
2021/09/18 01:42:56;;;;;;;0.40;0.30;;;;;;;11.35;100.00;100252.47;4988202;28;20450;-51
2021/09/18 01:45:24;;;;;;;0.40;0.20;;;;;;;11.36;100.00;100242.72;4988462;28;20503;-52
2021/09/18 01:47:54;;;;;;;0.77;0.77;;;;;;;11.24;100.00;100252.84;4983583;28;20449;-51
2021/09/18 01:50:43;;;;;;;0.40;0.20;;;;;;;11.17;100.00;100247.75;4981816;28;20533;-51
2021/09/18 01:53:11;;;;;;;0.30;0.20;;;;;;;11.31;100.00;100255.31;4983476;28;20450;-51
2021/09/18 01:55:38;;;;;;;0.30;0.20;;;;;;;11.15;100.00;100253.13;4980241;28;21008;-51
2021/09/18 01:58:06;;;;;;;3.13;2.20;;;;;;;11.06;100.00;100245.44;4994903;28;20445;-51
2021/09/18 02:00:41;;;;;;;0.43;0.37;;;;;;;11.05;100.00;100248.13;4981638;28;20998;-51
2021/09/18 02:03:08;;;;;;;0.30;0.20;;;;;;;11.11;100.00;100247.97;4981963;28;20549;-52
2021/09/18 02:05:35;;;;;;;0.40;0.20;;;;;;;11.13;100.00;100243.47;4969201;28;20496;-51
2021/09/18 02:08:03;;;;;;;0.40;0.30;;;;;;;11.17;100.00;100237.97;4981642;28;20508;-53
2021/09/18 02:10:30;;;;;;;0.30;0.20;;;;;;;11.14;100.00;100243.41;4983579;28;20898;-51
2021/09/18 02:12:59;;;;;;;0.40;0.20;;;;;;;11.07;100.00;100246.31;4981480;28;20490;-51
2021/09/18 02:15:26;;;;;;;0.30;0.20;;;;;;;10.97;100.00;100243.94;4983771;28;20454;-51
2021/09/18 02:17:53;;;;;;;0.30;0.20;;;;;;;10.92;100.00;100231.69;4981368;28;20486;-51
2021/09/18 02:20:23;;;;;;;0.30;0.20;;;;;;;10.91;100.00;100235.28;4987291;28;20470;-52
2021/09/18 02:22:50;;;;;;;0.30;0.20;;;;;;;10.82;100.00;100224.91;4976051;28;20993;-51
2021/09/18 02:25:18;;;;;;;0.40;0.30;;;;;;;10.63;100.00;100232.56;4986381;28;20643;-51
2021/09/18 02:27:47;;;;;;;0.40;0.37;;;;;;;10.72;100.00;100227.00;4987903;28;20457;-51
2021/09/18 02:30:26;;;;;;;0.40;0.30;;;;;;;10.77;100.00;100224.19;4983491;28;20489;-51
2021/09/18 02:32:54;;;;;;;1.20;1.20;;;;;;;10.80;100.00;100221.44;4981345;28;20872;-51
2021/09/18 02:35:23;;;;;;;0.30;0.20;;;;;;;10.72;100.00;100231.44;4983439;28;20915;-52
2021/09/18 02:37:54;;;;;;;0.40;0.30;;;;;;;10.82;100.00;100225.78;4982329;28;20461;-51
2021/09/18 02:40:22;;;;;;;0.40;0.20;;;;;;;10.90;100.00;100222.91;4982342;28;20507;-51
2021/09/18 02:42:56;;;;;;;0.30;0.20;;;;;;;10.71;100.00;100227.91;4987480;28;20477;-51
2021/09/18 02:45:24;;;;;;;0.30;0.20;;;;;;;10.67;100.00;100226.25;4987517;28;20468;-52
2021/09/18 02:47:51;;;;;;;0.30;0.30;;;;;;;10.64;100.00;100227.22;4982029;28;20481;-51
2021/09/18 02:50:19;;;;;;;0.40;0.20;;;;;;;10.50;100.00;100229.41;4981045;28;20536;-51
2021/09/18 02:52:46;;;;;;;0.30;0.20;;;;;;;10.64;100.00;100227.22;4986507;28;20509;-52
2021/09/18 02:55:14;;;;;;;0.30;0.20;;;;;;;10.75;100.00;100228.69;4987985;28;20484;-52
2021/09/18 02:57:41;;;;;;;0.30;0.20;;;;;;;10.80;100.00;100227.63;4993836;28;20512;-51
2021/09/18 03:00:09;;;;;;;0.30;0.30;;;;;;;10.87;100.00;100225.66;4980845;28;20887;-51
2021/09/18 03:02:37;;;;;;;0.40;0.20;;;;;;;10.83;100.00;100222.22;4987156;28;20449;-51
2021/09/18 03:05:06;;;;;;;0.30;0.20;;;;;;;10.60;100.00;100230.88;4980114;28;20552;-52
2021/09/18 03:07:33;;;;;;;0.40;0.20;;;;;;;10.52;100.00;100235.53;4983790;28;20454;-51
2021/09/18 03:10:00;;;;;;;0.30;0.20;;;;;;;10.71;100.00;100232.38;4986981;28;20544;-51
2021/09/18 03:12:27;;;;;;;0.40;0.20;;;;;;;10.61;100.00;100231.75;4984432;28;20881;-51
2021/09/18 03:14:54;;;;;;;0.30;0.20;;;;;;;10.38;100.00;100225.31;4980461;28;20465;-51
2021/09/18 03:17:21;;;;;;;0.40;0.30;;;;;;;10.38;100.00;100221.78;4982993;28;20489;-51
2021/09/18 03:19:51;;;;;;;0.30;0.20;;;;;;;10.46;100.00;100219.78;4986714;28;20474;-51
2021/09/18 03:22:18;;;;;;;0.30;0.20;;;;;;;10.42;100.00;100219.94;4985127;28;20506;-51
2021/09/18 03:24:46;;;;;;;0.30;0.20;;;;;;;10.26;100.00;100212.38;4980449;28;20453;-51
2021/09/18 03:27:14;;;;;;;0.30;0.20;;;;;;;10.29;100.00;100212.31;4981823;28;20482;-51
2021/09/18 03:29:41;;;;;;;0.30;0.30;;;;;;;10.29;100.00;100217.63;4986629;28;20991;-51
2021/09/18 03:32:09;;;;;;;0.63;0.50;;;;;;;10.28;100.00;100221.22;4978383;28;20521;-51
2021/09/18 03:34:36;;;;;;;0.30;0.20;;;;;;;10.46;100.00;100221.59;4987348;28;20478;-50
2021/09/18 03:37:03;;;;;;;0.60;0.60;;;;;;;10.43;100.00;100227.00;4986039;28;21010;-50
2021/09/18 03:39:30;;;;;;;0.40;0.40;;;;;;;10.51;100.00;100225.84;4979237;28;20524;-51
2021/09/18 03:41:57;;;;;;;0.73;0.70;;;;;;;10.30;100.00;100232.66;4979278;28;20455;-51
2021/09/18 03:44:24;;;;;;;0.30;0.20;;;;;;;10.35;100.00;100224.53;4980770;28;20961;-51
2021/09/18 03:46:51;;;;;;;0.30;0.20;;;;;;;10.16;100.00;100226.81;4979543;28;21408;-51
2021/09/18 03:49:18;;;;;;;0.30;0.20;;;;;;;10.18;100.00;100225.00;4969814;28;20513;-51
2021/09/18 03:51:45;;;;;;;0.30;0.20;;;;;;;10.15;100.00;100229.53;4969146;28;21052;-51
2021/09/18 03:54:12;;;;;;;0.30;0.20;;;;;;;10.15;100.00;100222.44;4967712;28;20993;-50
2021/09/18 03:56:39;;;;;;;0.30;0.20;;;;;;;10.15;100.00;100224.22;4980801;28;20486;-52
2021/09/18 03:59:05;;;;;;;0.40;0.30;;;;;;;10.23;100.00;100224.88;4975387;28;20954;-52
2021/09/18 04:01:32;;;;;;;0.30;0.20;;;;;;;10.35;100.00;100224.53;4980228;28;20477;-52
2021/09/18 04:04:00;;;;;;;0.30;0.20;;;;;;;10.27;100.00;100222.09;4981566;28;20457;-52
2021/09/18 04:06:27;;;;;;;0.30;0.20;;;;;;;10.29;100.00;100225.59;4978598;28;20454;-52
2021/09/18 04:08:54;;;;;;;0.30;0.20;;;;;;;10.26;100.00;100230.97;4979641;28;20520;-52
2021/09/18 04:11:21;;;;;;;0.40;0.37;;;;;;;10.41;100.00;100234.97;4978871;28;20529;-53
2021/09/18 04:13:48;;;;;;;0.30;0.20;;;;;;;10.51;100.00;100230.28;4981110;28;20997;-52
2021/09/18 04:16:15;;;;;;;0.43;0.40;;;;;;;10.51;100.00;100224.97;4979805;28;20489;-52
2021/09/18 04:18:42;;;;;;;0.67;0.67;;;;;;;10.39;100.00;100223.53;4987823;28;20950;-52
2021/09/18 04:21:09;;;;;;;0.30;0.20;;;;;;;10.40;100.00;100230.59;4965445;28;20494;-52
2021/09/18 04:23:36;;;;;;;0.30;0.20;;;;;;;11.21;100.00;100231.63;4958287;28;20527;-52
2021/09/18 04:26:03;;;;;;;0.40;0.40;;;;;;;11.92;100.00;100227.50;4975397;28;20485;-52
2021/09/18 04:28:29;;;;;;;0.30;0.20;;;;;;;11.37;100.00;100228.47;4984940;28;20581;-51
2021/09/18 04:30:56;;;;;;;0.30;0.20;;;;;;;11.16;100.00;100233.59;4980496;28;20564;-52
2021/09/18 04:33:24;;;;;;;0.30;0.20;;;;;;;10.72;100.00;100236.75;4976741;28;20907;-52
2021/09/18 04:35:50;;;;;;;0.30;0.20;;;;;;;10.64;100.00;100237.84;4979160;28;20480;-52
2021/09/18 04:38:18;;;;;;;0.30;0.20;;;;;;;10.56;100.00;100237.22;4981679;28;20492;-52
2021/09/18 04:40:45;;;;;;;0.57;0.57;;;;;;;10.62;100.00;100241.47;4985924;28;20470;-52
2021/09/18 04:43:12;;;;;;;0.30;0.20;;;;;;;10.49;100.00;100237.44;4983321;28;20453;-52
2021/09/18 04:45:41;;;;;;;0.30;0.20;;;;;;;10.65;100.00;100238.72;4979324;28;20449;-51
2021/09/18 04:48:08;;;;;;;0.30;0.20;;;;;;;10.54;100.00;100239.03;4981998;28;20536;-52
2021/09/18 04:50:35;;;;;;;0.30;0.20;;;;;;;10.52;100.00;100237.34;4986481;28;20502;-52
2021/09/18 04:53:02;;;;;;;0.30;0.30;;;;;;;10.59;100.00;100245.09;4987618;28;20457;-52
2021/09/18 04:55:29;;;;;;;0.30;0.20;;;;;;;10.52;100.00;100245.31;4983194;28;20862;-52
2021/09/18 04:57:56;;;;;;;0.30;0.20;;;;;;;10.52;100.00;100245.31;4996522;28;20457;-52
2021/09/18 05:00:23;;;;;;;0.40;0.30;;;;;;;10.56;100.00;100239.88;4982850;28;20600;-51
2021/09/18 05:02:50;;;;;;;0.30;0.20;;;;;;;10.48;100.00;100243.66;4989555;28;20943;-52
2021/09/18 05:05:18;;;;;;;0.30;0.30;;;;;;;10.45;100.00;100251.72;4981668;28;21012;-52
2021/09/18 05:07:45;;;;;;;0.30;0.20;;;;;;;10.48;100.00;100254.28;4984421;28;20820;-52
2021/09/18 05:10:12;;;;;;;0.40;0.40;;;;;;;10.57;100.00;100248.72;4989828;28;21058;-51
2021/09/18 05:12:39;;;;;;;0.30;0.20;;;;;;;10.47;100.00;100247.25;4986974;28;20489;-51
2021/09/18 05:15:07;;;;;;;0.30;0.30;;;;;;;10.44;100.00;100250.00;4982492;28;20453;-51
2021/09/18 05:17:34;;;;;;;0.30;0.20;;;;;;;10.35;100.00;100253.75;4983562;28;20485;-51
2021/09/18 05:20:01;;;;;;;0.30;0.20;;;;;;;10.49;100.00;100261.34;4989395;28;20474;-51
2021/09/18 05:22:28;;;;;;;0.30;0.20;;;;;;;10.46;100.00;100266.75;4988568;28;20480;-51
2021/09/18 05:24:55;;;;;;;0.37;0.23;;;;;;;10.52;100.00;100261.25;4982451;28;20492;-51
2021/09/18 05:27:22;;;;;;;0.30;0.20;;;;;;;10.45;100.00;100265.00;4983183;28;20513;-51
2021/09/18 05:29:49;;;;;;;0.30;0.20;;;;;;;10.42;100.00;100273.09;4989123;28;20521;-51
2021/09/18 05:32:16;;;;;;;0.40;0.40;;;;;;;10.37;100.00;100271.41;4981131;28;20494;-51
2021/09/18 05:34:43;;;;;;;0.47;0.40;;;;;;;10.43;100.00;100269.50;4982453;28;20457;-51
2021/09/18 05:37:10;;;;;;;0.30;0.20;;;;;;;10.44;100.00;100274.78;4982606;28;20505;-51
2021/09/18 05:39:37;;;;;;;0.30;0.20;;;;;;;10.49;100.00;100277.28;4988409;28;20553;-51
2021/09/18 05:42:08;;;;;;;0.30;0.20;;;;;;;10.57;100.00;100272.63;4988731;28;20450;-51
2021/09/18 05:44:35;;;;;;;2.60;2.00;;;;;;;10.56;100.00;100279.75;4983905;28;20462;-51
2021/09/18 05:47:02;;;;;;;0.33;0.27;;;;;;;10.66;100.00;100282.97;4982279;28;20892;-51
2021/09/18 05:49:29;;;;;;;0.30;0.20;;;;;;;10.83;100.00;100280.72;4985295;28;20984;-50
2021/09/18 05:51:57;;;;;;;0.30;0.20;;;;;;;10.94;100.00;100288.34;4988688;28;20493;-51
2021/09/18 05:54:25;;;;;;;0.30;0.20;;;;;;;11.00;100.00;100293.50;4984708;28;20492;-51
2021/09/18 05:56:51;;;;;;;0.30;0.20;;;;;;;10.93;100.00;100291.94;4994867;28;20449;-51
2021/09/18 05:59:18;;;;;;;0.97;0.97;;;;;;;10.98;100.00;100285.59;4986441;28;20525;-51
2021/09/18 06:01:45;;;;;;;0.30;0.20;;;;;;;11.10;100.00;100289.66;4983237;28;20483;-52
2021/09/18 06:04:12;;;;;;;0.60;0.57;;;;;;;11.15;100.00;100287.72;4986250;28;20454;-51
2021/09/18 06:06:39;;;;;;;0.40;0.30;;;;;;;11.33;100.00;100283.59;4988518;28;20871;-51
2021/09/18 06:09:06;;;;;;;0.30;0.20;;;;;;;11.43;100.00;100281.53;4984567;28;20493;-51
2021/09/18 06:11:33;;;;;;;0.30;0.20;;;;;;;11.39;100.00;100277.22;4981507;28;21003;-51
2021/09/18 06:14:00;;;;;;;0.30;0.20;;;;;;;11.44;100.00;100272.63;4985712;28;20454;-51
2021/09/18 06:16:27;;;;;;;0.40;0.30;;;;;;;11.60;100.00;100265.88;4988289;28;20509;-51
2021/09/18 06:18:54;;;;;;;0.30;0.20;;;;;;;11.59;100.00;100274.78;4984556;28;21053;-51
2021/09/18 06:21:21;;;;;;;0.30;0.20;;;;;;;11.69;100.00;100283.34;4980647;28;20449;-51
2021/09/18 06:23:48;;;;;;;0.30;0.20;;;;;;;11.67;100.00;100278.06;4984916;28;20450;-51
2021/09/18 06:26:16;;;;;;;0.30;0.20;;;;;;;11.70;100.00;100285.94;4988175;28;20458;-51
2021/09/18 06:28:44;;;;;;;0.40;0.37;;;;;;;11.76;100.00;100279.53;4984881;28;21085;-52
2021/09/18 06:31:11;;;;;;;0.40;0.40;;;;;;;11.73;100.00;100290.28;4983112;28;20505;-51
2021/09/18 06:33:38;;;;;;;0.30;0.20;;;;;;;11.93;100.00;100285.22;4985331;28;20457;-51
2021/09/18 06:36:05;;;;;;;0.30;0.20;;;;;;;12.04;100.00;100282.16;4981092;28;20810;-52
2021/09/18 06:38:32;;;;;;;0.30;0.20;;;;;;;11.96;100.00;100279.78;4984018;28;20451;-51
2021/09/18 06:41:00;;;;;;;0.30;0.20;;;;;;;12.04;100.00;100284.81;4987721;28;20458;-51
2021/09/18 06:43:30;;;;;;;0.30;0.20;;;;;;;12.10;100.00;100284.63;4985465;28;20450;-53
2021/09/18 06:45:57;;;;;;;0.30;0.20;;;;;;;12.15;100.00;100286.19;4979665;28;20878;-52
2021/09/18 06:48:24;;;;;;;0.40;0.37;;;;;;;12.34;100.00;100289.09;4982864;28;20502;-52
2021/09/18 06:50:51;;;;;;;0.30;0.20;;;;;;;12.48;100.00;100288.59;4987425;28;20903;-52
2021/09/18 06:53:18;;;;;;;0.30;0.20;;;;;;;12.59;100.00;100291.72;4986728;28;20512;-52
2021/09/18 06:55:45;;;;;;;0.30;0.20;;;;;;;12.50;100.00;100288.53;4981379;28;20878;-52
2021/09/18 06:58:12;;;;;;;0.30;0.20;;;;;;;12.65;100.00;100291.50;4993781;28;20514;-52
2021/09/18 07:00:39;;;;;;;0.30;0.20;;;;;;;12.71;100.00;100293.94;4980394;28;20508;-51
2021/09/18 07:03:07;;;;;;;0.30;0.30;;;;;;;12.74;100.00;100287.59;4980592;28;20446;-52
2021/09/18 07:05:35;;;;;;;0.30;0.20;;;;;;;12.92;100.00;100289.59;4987300;28;20490;-52
2021/09/18 07:08:02;;;;;;;0.40;0.20;;;;;;;13.05;100.00;100295.34;4987165;28;20453;-53
2021/09/18 07:10:29;;;;;;;0.30;0.20;;;;;;;13.13;100.00;100295.88;4980811;28;20990;-51
2021/09/18 07:12:58;;;;;;;1.80;1.70;;;;;;;13.07;100.00;100304.16;4979847;28;20580;-52
2021/09/18 07:15:25;;;;;;;0.40;0.20;;;;;;;13.27;100.00;100293.59;4986003;28;20454;-52
2021/09/18 07:17:53;;;;;;;0.30;0.20;;;;;;;13.16;100.00;100298.47;4987440;28;20472;-51
2021/09/18 07:20:20;;;;;;;1.13;1.13;;;;;;;13.23;100.00;100299.97;4981650;28;20851;-51
2021/09/18 07:22:47;;;;;;;0.40;0.30;;;;;;;13.36;100.00;100302.16;4980304;28;20940;-53
2021/09/18 07:25:15;;;;;;;0.50;0.40;;;;;;;13.41;100.00;100300.16;4985696;28;20956;-51
2021/09/18 07:27:42;;;;;;;0.30;0.20;;;;;;;13.57;100.00;100307.53;4986976;28;20488;-51
2021/09/18 07:30:10;;;;;;;0.40;0.30;;;;;;;13.65;100.00;100304.53;4981841;28;20478;-52
2021/09/18 07:32:37;;;;;;;0.30;0.20;;;;;;;13.81;100.00;100302.09;4979966;28;20533;-51
2021/09/18 07:35:07;;;;;;;0.40;0.20;;;;;;;13.73;100.00;100302.44;4985009;28;20454;-51
2021/09/18 07:37:36;;;;;;;0.87;0.87;;;;;;;13.67;100.00;100315.16;4986411;28;20457;-52
2021/09/18 07:40:06;;;;;;;0.90;0.90;;;;;;;13.75;100.00;100313.91;4982821;28;20994;-52
2021/09/18 07:42:33;;;;;;;0.30;0.20;;;;;;;13.85;100.00;100311.75;4979819;28;20453;-52
2021/09/18 07:45:01;;;;;;;0.30;0.20;;;;;;;14.17;100.00;100313.03;4983238;28;20493;-53
2021/09/18 07:47:28;;;;;;;0.53;0.53;;;;;;;14.19;100.00;100308.50;4986509;28;21116;-52
2021/09/18 07:49:54;;;;;;;0.30;0.20;;;;;;;14.40;100.00;100312.91;4983647;28;20508;-52
2021/09/18 07:52:21;;;;;;;0.40;0.20;;;;;;;14.38;100.00;100312.09;4979492;28;20525;-52
2021/09/18 07:54:48;;;;;;;0.37;0.20;;;;;;;14.50;100.00;100308.03;4982939;28;20478;-52
2021/09/18 07:57:36;;;;;;;0.40;0.20;;;;;;;14.52;100.00;100309.72;4969705;28;20481;-52
2021/09/18 08:00:05;;;;;;;0.40;0.20;;;;;;;14.99;100.00;100313.84;4979809;28;20474;-52
2021/09/18 08:02:32;;;;;;;0.30;0.20;;;;;;;15.05;100.00;100317.09;4986254;28;20449;-52
2021/09/18 08:05:02;;;;;;;0.40;0.30;;;;;;;15.13;100.00;100306.06;4978423;28;20447;-53
2021/09/18 08:07:29;;;;;;;0.70;0.70;;;;;;;15.29;100.00;100315.09;4983819;28;20458;-52
2021/09/18 08:09:56;;;;;;;0.40;0.20;;;;;;;15.16;100.00;100321.09;4986017;28;21004;-52
2021/09/18 08:12:24;;;;;;;0.40;0.20;;;;;;;15.33;100.00;100316.66;4982826;28;20497;-52
2021/09/18 08:14:51;;;;;;;2.10;2.00;;;;;;;15.45;100.00;100312.53;4979525;28;20488;-53
2021/09/18 08:17:18;;;;;;;0.40;0.20;;;;;;;15.41;100.00;100313.63;4982961;28;20454;-52
2021/09/18 08:19:45;;;;;;;3.60;2.00;;;;;;;15.58;100.00;100313.69;4986028;28;20833;-53
2021/09/18 08:22:13;;;;;;;1.73;1.63;;;;;;;15.65;100.00;100311.63;4982910;28;20819;-52
2021/09/18 08:24:39;;;;;;;0.40;0.20;;;;;;;15.65;100.00;100317.84;4980234;28;20485;-52
2021/09/18 08:27:06;;;;;;;4.10;1.33;;;;;;;15.69;100.00;100321.25;4986829;28;20513;-52
2021/09/18 08:29:33;;;;;;;0.40;0.20;;;;;;;15.83;100.00;100326.78;4989771;28;20506;-52
2021/09/18 08:32:00;;;;;;;0.40;0.20;;;;;;;16.24;100.00;100323.81;4981392;28;21022;-52
2021/09/18 08:34:27;;;;;;;0.43;0.37;;;;;;;16.39;100.00;100314.97;4989753;28;20477;-52
2021/09/18 08:36:54;;;;;;;0.40;0.20;;;;;;;16.20;99.94;100320.44;4986468;28;20508;-52
2021/09/18 08:39:21;;;;;;;0.67;0.67;;;;;;;16.36;99.89;100317.84;4983254;28;20776;-53
2021/09/18 08:41:48;;;;;;;0.40;0.20;;;;;;;16.53;99.66;100323.19;4985936;28;20446;-53
2021/09/18 08:44:15;;;;;;;0.40;0.30;;;;;;;16.74;98.90;100313.16;4989979;28;20877;-53
2021/09/18 08:46:43;;;;;;;0.40;0.20;;;;;;;16.86;97.95;100317.88;4987832;28;20449;-53
2021/09/18 08:49:11;;;;;;;0.40;0.20;;;;;;;17.00;96.84;100318.94;4983063;28;20462;-53
2021/09/18 08:51:40;;;;;;;0.60;0.60;;;;;;;17.10;96.15;100320.16;4983943;28;20524;-53
2021/09/18 08:54:07;;;;;;;0.50;0.50;;;;;;;17.11;96.95;100324.56;4988825;28;20520;-53
2021/09/18 08:56:34;;;;;;;0.40;0.30;;;;;;;17.44;95.92;100322.72;4987966;28;20994;-53
2021/09/18 08:59:02;;;;;;;0.50;0.40;;;;;;;17.67;96.13;100325.91;4990060;28;20469;-53
2021/09/18 09:01:29;;;;;;;0.70;0.47;;;;;;;17.91;95.86;100319.13;4981461;28;20454;-53
2021/09/18 09:03:58;;;;;;;0.40;0.20;;;;;;;17.64;96.74;100320.69;4989815;28;20727;-53
2021/09/18 09:06:43;;;;;;;0.40;0.20;;;;;;;17.70;97.19;100317.72;4989475;28;20931;-54
2021/09/18 09:09:10;;;;;;;0.50;0.30;;;;;;;17.81;96.55;100320.63;4985270;28;20488;-53
2021/09/18 09:11:47;;;;;;;4.23;2.73;;;;;;;17.90;96.13;100312.03;4982557;28;20463;-53
2021/09/18 09:14:14;;;;;;;0.40;0.40;;;;;;;18.13;95.66;100310.69;4985351;28;20484;-53
2021/09/18 09:17:05;;;;;;;0.40;0.20;;;;;;;18.38;96.33;100318.16;4988336;28;20457;-53
2021/09/18 09:19:40;;;;;;;0.47;0.37;;;;;;;18.39;95.26;100308.25;4989086;28;20907;-53
2021/09/18 09:22:07;;;;;;;0.87;0.87;;;;;;;18.55;95.62;100306.34;4984910;28;20445;-53
2021/09/18 09:24:35;;;;;;;0.50;0.40;;;;;;;18.63;94.25;100306.72;4982587;28;20454;-53
2021/09/18 09:27:07;;;;;;;0.57;0.53;;;;;;;18.62;95.02;100305.88;4986905;28;20962;-53
2021/09/18 09:29:53;;;;;;;0.40;0.20;;;;;;;18.44;96.08;100304.31;4988924;28;20510;-53
2021/09/18 09:32:27;;;;;;;0.50;0.30;;;;;;;19.02;93.53;100300.72;4982004;28;20604;-53
2021/09/18 09:34:55;;;;;;;0.40;0.20;;;;;;;18.83;92.94;100295.66;4970199;28;20947;-53
2021/09/18 09:37:23;;;;;;;1.13;1.07;;;;;;;19.16;92.98;100302.53;4981440;28;20454;-53
2021/09/18 09:39:58;;;;;;;0.40;0.20;;;;;;;19.05;92.72;100295.16;4988056;28;20482;-52
2021/09/18 09:42:27;;;;;;;1.00;1.00;;;;;;;19.30;92.14;100296.25;4988736;28;20456;-53
2021/09/18 09:45:08;;;;;;;3.10;2.80;;;;;;;19.55;90.89;100291.03;4984904;28;20488;-53
2021/09/18 09:47:35;;;;;;;0.60;0.40;;;;;;;19.38;90.48;100291.25;4982419;28;20811;-53
2021/09/18 09:50:03;;;;;;;0.50;0.40;;;;;;;19.37;91.29;100286.84;4984465;28;20483;-53
2021/09/18 09:52:32;;;;;;;0.73;0.73;;;;;;;19.73;91.12;100294.34;4987439;28;20544;-53
2021/09/18 09:55:08;;;;;;;0.70;0.70;;;;;;;20.02;89.51;100287.88;4986873;28;20449;-54
2021/09/18 09:57:35;;;;;;;0.50;0.30;;;;;;;19.90;89.89;100286.03;4972060;28;20484;-53
2021/09/18 10:00:06;;;;;;;0.40;0.23;;;;;;;20.27;88.60;100284.34;4981656;28;20565;-53
2021/09/18 10:02:34;;;;;;;0.93;0.93;;;;;;;20.46;87.41;100275.03;4988475;28;21019;-54
2021/09/18 10:05:04;;;;;;;14.70;1.73;;;;;;;20.51;87.86;100284.53;4982058;28;20451;-53
2021/09/18 10:07:31;;;;;;;0.60;0.50;;;;;;;20.67;88.00;100279.78;4985295;28;20481;-55
2021/09/18 10:10:08;;;;;;;1.00;1.00;;;;;;;20.75;86.27;100273.84;4988156;28;21124;-53
2021/09/18 10:12:36;;;;;;;2.63;2.43;;;;;;;20.68;86.08;100278.81;4986887;28;20518;-54
2021/09/18 10:15:07;;;;;;;0.60;0.60;;;;;;;21.03;86.77;100279.97;4981854;28;20449;-53
2021/09/18 10:17:38;;;;;;;1.93;1.83;;;;;;;21.37;85.19;100275.69;4983090;28;20454;-53
2021/09/18 10:23:13;;;;;;;0.70;0.70;;;;;;;21.35;85.42;100273.09;4981783;28;20970;-53
2021/09/18 10:23:17;;;;;;;0.73;0.70;;;;;;;21.25;85.04;100272.09;4981510;28;20485;-53
2021/09/18 10:25:56;;;;;;;0.87;0.87;;;;;;;21.29;85.40;100263.63;4982139;28;20502;-53
2021/09/18 10:28:40;;;;;;;1.90;1.80;;;;;;;21.45;84.12;100270.59;4971231;28;20866;-53
2021/09/18 10:31:18;;;;;;;0.60;0.60;;;;;;;21.54;86.02;100265.38;4982296;28;20425;-54
2021/09/18 10:33:49;;;;;;;0.87;0.87;;;;;;;21.37;87.86;100268.44;4986733;28;20548;-53
2021/09/18 10:36:42;;;;;;;0.40;0.40;;;;;;;21.19;85.04;100261.66;4981567;28;20449;-53
2021/09/18 10:39:18;;;;;;;0.77;0.77;;;;;;;21.80;82.52;100262.56;4981327;28;20448;-53
2021/09/18 10:41:49;;;;;;;0.40;0.30;;;;;;;21.64;81.96;100259.25;4982256;28;20466;-53
2021/09/18 10:44:18;;;;;;;0.80;0.80;;;;;;;21.97;79.62;100256.72;4987784;28;20444;-54
2021/09/18 10:46:51;;;;;;;2.67;2.47;;;;;;;22.08;77.10;100262.22;4986134;28;20429;-53
2021/09/18 10:49:31;;;;;;;0.50;0.50;;;;;;;22.17;78.15;100264.19;4968635;28;20481;-53
2021/09/18 10:52:16;;;;;;;1.17;1.17;;;;;;;22.25;76.47;100257.34;4981033;28;20424;-53
2021/09/18 10:55:02;;;;;;;2.30;2.00;;;;;;;22.65;75.89;100250.50;4983180;28;20887;-53
2021/09/18 10:57:38;;;;;;;1.17;1.17;;;;;;;22.53;74.79;100248.78;4969210;28;20535;-54
2021/09/18 11:00:18;;;;;;;0.80;0.80;;;;;;;22.20;76.32;100254.09;4980664;28;20449;-53
2021/09/18 11:02:49;;;;;;;0.40;0.30;;;;;;;22.56;77.41;100256.66;4987578;28;20475;-55
2021/09/18 11:05:25;;;;;;;1.70;1.07;;;;;;;22.15;77.83;100252.63;4980586;28;20457;-54
2021/09/18 11:07:55;;;;;;;0.83;0.83;;;;;;;21.82;77.75;100252.47;4981170;28;20944;-53
2021/09/18 11:10:21;;;;;;;1.73;1.60;;;;;;;21.78;76.68;100243.72;4990492;28;20496;-56
2021/09/18 11:13:35;;;;;;;0.40;0.27;;;;;;;21.90;73.64;100247.31;4992360;28;20471;-56
2021/09/18 11:16:22;;;;;;;0.73;0.73;;;;;;;21.33;77.84;100248.03;4948179;29;20430;-56
2021/09/18 11:18:58;;;;;;;2.30;2.20;;;;;;;21.70;77.92;100243.44;4977720;28;20489;-56
2021/09/18 11:21:32;;;;;;;2.07;1.97;;;;;;;21.43;78.46;100246.38;4984710;28;20424;-56
2021/09/18 11:24:00;;;;;;;0.67;0.53;;;;;;;21.54;77.81;100243.75;4986774;28;20460;-56
2021/09/18 11:26:48;;;;;;;0.47;0.40;;;;;;;22.06;77.50;100237.06;4991334;28;20437;-56
2021/09/18 11:29:20;;;;;;;1.57;1.47;;;;;;;22.40;76.54;100240.75;4990172;28;20504;-56